Time;durP1;ratioP1;P1;durP2;ratioP2;P2;SDS_P1;SDS_P2;PMS_P1;PMS_P2;Temp;Humidity;BMP_temperature;BMP_pressure;BME280_temperature;BME280_humidity;BME280_pressure;Samples;Min_cycle;Max_cycle;Signal;HPM_P1;HPM_P2
2021/08/30 00:00:36;;;;;;;6.05;3.40;;;;;;;14.05;100.00;98587.72;5044195;28;20256;-70
2021/08/30 00:03:02;;;;;;;8.00;3.60;;;;;;;13.98;100.00;98587.03;5043880;28;20033;-70
2021/08/30 00:05:27;;;;;;;8.80;3.05;;;;;;;13.99;100.00;98587.91;5026640;28;20147;-70
2021/08/30 00:07:53;;;;;;;9.65;3.60;;;;;;;13.97;100.00;98580.03;5043960;28;20325;-70
2021/08/30 00:10:18;;;;;;;6.13;3.67;;;;;;;13.99;100.00;98582.63;5043794;28;20065;-70
2021/08/30 00:12:44;;;;;;;9.27;4.10;;;;;;;13.97;100.00;98579.16;5043985;28;20325;-70
2021/08/30 00:15:11;;;;;;;8.07;4.07;;;;;;;13.91;100.00;98584.66;5043932;28;20032;-70
2021/08/30 00:17:36;;;;;;;11.80;4.28;;;;;;;13.87;100.00;98580.38;5043988;28;20051;-70
2021/08/30 00:20:04;;;;;;;6.78;3.78;;;;;;;13.89;100.00;98581.22;5026162;28;20041;-70
2021/08/30 00:22:30;;;;;;;10.30;4.47;;;;;;;13.84;100.00;98583.13;5043947;28;20309;-70
2021/08/30 00:24:55;;;;;;;8.65;4.30;;;;;;;13.80;100.00;98576.22;5043847;28;20089;-70
2021/08/30 00:27:21;;;;;;;8.35;4.00;;;;;;;13.76;100.00;98571.97;5043604;28;20232;-70
2021/08/30 00:29:46;;;;;;;8.10;4.00;;;;;;;13.71;100.00;98571.22;5043778;28;20021;-70
2021/08/30 00:32:11;;;;;;;9.45;4.38;;;;;;;13.72;100.00;98572.94;5043469;28;20017;-70
2021/08/30 00:34:37;;;;;;;7.40;4.18;;;;;;;13.60;100.00;98578.66;5043663;28;20104;-70
2021/08/30 00:37:02;;;;;;;8.25;3.53;;;;;;;13.55;100.00;98570.00;5043674;28;20017;-70
2021/08/30 00:39:30;;;;;;;8.85;4.13;;;;;;;13.47;100.00;98564.06;5043597;28;20052;-70
2021/08/30 00:41:56;;;;;;;5.82;3.88;;;;;;;13.45;100.00;98566.75;5043658;28;20308;-70
2021/08/30 00:44:23;;;;;;;6.10;3.80;;;;;;;13.36;100.00;98569.72;5043618;28;20040;-70
2021/08/30 00:46:48;;;;;;;11.55;4.03;;;;;;;13.38;100.00;98561.75;5043331;28;20123;-70
2021/08/30 00:49:14;;;;;;;8.20;4.00;;;;;;;13.36;100.00;98564.44;5043588;28;20041;-70
2021/08/30 00:51:39;;;;;;;6.43;3.75;;;;;;;13.33;100.00;98568.94;5043622;28;20017;-70
2021/08/30 00:54:05;;;;;;;8.43;3.80;;;;;;;13.31;99.86;98570.75;5042954;28;20092;-70
2021/08/30 00:56:30;;;;;;;5.75;3.63;;;;;;;13.29;100.00;98567.31;5043763;28;20267;-70
2021/08/30 00:58:56;;;;;;;8.10;3.88;;;;;;;13.31;100.00;98565.47;5047921;28;20025;-70
2021/08/30 01:01:22;;;;;;;10.27;3.78;;;;;;;13.28;100.00;98566.44;5047420;28;20029;-70
2021/08/30 01:03:48;;;;;;;7.25;4.18;;;;;;;13.38;100.00;98567.88;5047617;28;20259;-70
2021/08/30 01:06:35;;;;;;;8.52;4.18;;;;;;;13.29;100.00;98562.88;5047406;28;20269;-70
2021/08/30 01:09:21;;;;;;;7.32;3.75;;;;;;;13.34;100.00;98560.09;5047505;28;20025;-70
2021/08/30 01:11:54;;;;;;;9.30;5.15;;;;;;;13.38;100.00;98557.31;5047210;28;20336;-70
2021/08/30 01:14:20;;;;;;;6.28;4.10;;;;;;;13.42;100.00;98563.38;5029614;28;20033;-70
2021/08/30 01:16:47;;;;;;;10.68;3.95;;;;;;;13.41;100.00;98561.66;5047301;28;20014;-70
2021/08/30 01:19:18;;;;;;;8.82;3.78;;;;;;;13.47;100.00;98562.31;5047274;28;20044;-70
2021/08/30 01:21:45;;;;;;;10.48;4.22;;;;;;;13.51;100.00;98563.94;5047094;28;20029;-70
2021/08/30 01:24:17;;;;;;;5.65;3.92;;;;;;;13.45;100.00;98564.13;5029481;28;20017;-70
2021/08/30 01:26:51;;;;;;;12.90;4.40;;;;;;;13.45;100.00;98557.97;5036367;28;20024;-70
2021/08/30 01:29:28;;;;;;;7.15;4.00;;;;;;;13.52;100.00;98554.22;5047220;28;20033;-70
2021/08/30 01:32:02;;;;;;;9.00;4.28;;;;;;;13.61;100.00;98559.22;5046910;28;20024;-70
2021/08/30 01:34:30;;;;;;;8.85;3.67;;;;;;;13.61;100.00;98564.50;5043473;28;20033;-70
2021/08/30 01:36:56;;;;;;;6.90;3.65;;;;;;;13.58;100.00;98554.03;5046875;28;20022;-70
2021/08/30 01:39:29;;;;;;;10.50;3.72;;;;;;;13.62;100.00;98553.88;5046914;28;20029;-70
2021/08/30 01:41:57;;;;;;;8.32;4.22;;;;;;;13.61;100.00;98560.09;5046937;28;20017;-70
2021/08/30 01:44:25;;;;;;;11.10;4.60;;;;;;;13.58;100.00;98554.03;5046618;28;20022;-70
2021/08/30 01:46:51;;;;;;;7.65;4.50;;;;;;;13.58;100.00;98554.91;5046715;28;20017;-70
2021/08/30 01:49:19;;;;;;;6.35;3.72;;;;;;;13.64;100.00;98565.25;5046732;28;20044;-70
2021/08/30 01:51:48;;;;;;;7.50;4.22;;;;;;;13.60;100.00;98562.78;5046700;28;20243;-70
2021/08/30 01:54:14;;;;;;;15.50;4.20;;;;;;;13.62;100.00;98561.81;5046515;28;20017;-70
2021/08/30 01:56:46;;;;;;;11.55;4.90;;;;;;;13.68;100.00;98566.03;5046219;28;20247;-70
2021/08/30 02:01:55;;;;;;;9.98;5.18;;;;;;;13.72;100.00;98567.66;5046383;28;20037;-70
2021/08/30 02:04:21;;;;;;;12.07;5.70;;;;;;;13.80;100.00;98570.94;5045764;28;20013;-70
2021/08/30 02:06:46;;;;;;;12.15;6.05;;;;;;;13.78;100.00;98572.75;5046448;28;20017;-70
2021/08/30 02:09:12;;;;;;;13.80;5.85;;;;;;;13.81;100.00;98562.94;5046212;28;20096;-70
2021/08/30 02:11:38;;;;;;;11.57;5.90;;;;;;;13.84;100.00;98562.84;5046070;28;20025;-70
2021/08/30 02:14:07;;;;;;;13.27;6.90;;;;;;;13.91;100.00;98561.72;5046306;28;20056;-70
2021/08/30 02:16:33;;;;;;;15.60;6.88;;;;;;;13.96;100.00;98562.44;5046375;28;20300;-70
2021/08/30 02:19:24;;;;;;;17.90;7.18;;;;;;;13.97;100.00;98568.56;5046263;28;20368;-70
2021/08/30 02:22:00;;;;;;;19.42;7.80;;;;;;;13.95;100.00;98565.13;5042072;28;20021;-70
2021/08/30 02:24:38;;;;;;;13.52;6.75;;;;;;;13.99;100.00;98567.59;5046240;28;20043;-70
2021/08/30 02:27:14;;;;;;;13.07;6.32;;;;;;;14.06;100.00;98568.25;5046220;28;20025;-70
2021/08/30 02:30:04;;;;;;;21.63;8.30;;;;;;;14.06;100.00;98568.25;5046192;28;20021;-70
2021/08/30 02:32:31;;;;;;;12.65;6.85;;;;;;;14.12;100.00;98565.41;5045124;28;20029;-70
2021/08/30 02:34:59;;;;;;;17.23;8.10;;;;;;;14.17;100.00;98558.16;5045762;28;20031;-70
2021/08/30 02:37:28;;;;;;;18.13;8.65;;;;;;;14.16;100.00;98570.56;5046100;28;20017;-70
2021/08/30 02:39:55;;;;;;;25.38;9.50;;;;;;;14.20;100.00;98560.69;5045931;28;20021;-70
2021/08/30 02:42:20;;;;;;;18.77;8.45;;;;;;;14.22;100.00;98559.75;5038145;28;20021;-70
2021/08/30 02:44:47;;;;;;;20.13;7.97;;;;;;;14.21;100.00;98562.44;5045888;28;20017;-70
2021/08/30 02:47:14;;;;;;;13.75;7.03;;;;;;;14.17;100.00;98560.81;5045842;28;20025;-70
2021/08/30 02:49:44;;;;;;;24.50;9.38;;;;;;;14.12;100.00;98557.47;5045742;28;20023;-70
2021/08/30 02:52:12;;;;;;;19.02;9.45;;;;;;;14.18;100.00;98552.81;5045604;28;20029;-70
2021/08/30 02:54:39;;;;;;;22.73;9.00;;;;;;;14.24;100.00;98551.78;5041951;28;20071;-70
2021/08/30 02:57:06;;;;;;;17.63;8.73;;;;;;;14.25;100.00;98553.50;5045619;28;20363;-70
2021/08/30 02:59:33;;;;;;;28.60;8.20;;;;;;;14.20;100.00;98544.81;5045816;28;20045;-70
2021/08/30 03:02:00;;;;;;;18.17;8.82;;;;;;;14.18;100.00;98551.97;5027833;28;20075;-70
2021/08/30 03:04:27;;;;;;;18.02;8.82;;;;;;;14.20;100.00;98553.63;5045475;28;20059;-70
2021/08/30 03:06:53;;;;;;;17.45;7.97;;;;;;;14.22;100.00;98548.28;5045548;28;20082;-70
2021/08/30 03:09:19;;;;;;;20.85;9.38;;;;;;;14.22;100.00;98548.28;5045255;28;20025;-70
2021/08/30 03:11:47;;;;;;;22.60;8.57;;;;;;;14.25;100.00;98545.56;5041032;28;20411;-70
2021/08/30 03:14:18;;;;;;;16.92;8.00;;;;;;;14.24;100.00;98541.19;5045407;28;20072;-70
2021/08/30 03:16:43;;;;;;;17.92;8.38;;;;;;;14.27;100.00;98549.03;5045477;28;20025;-70
2021/08/30 03:19:13;;;;;;;18.73;8.73;;;;;;;14.27;100.00;98552.53;5044730;28;20021;-70
2021/08/30 03:21:40;;;;;;;23.00;8.93;;;;;;;14.26;100.00;98549.94;5044936;28;20025;-70
2021/08/30 03:24:07;;;;;;;29.88;9.63;;;;;;;14.25;100.00;98559.69;5045205;28;20024;-70
2021/08/30 03:26:34;;;;;;;33.25;10.65;;;;;;;14.27;100.00;98556.97;5045197;28;20115;-70
2021/08/30 03:29:00;;;;;;;23.05;9.70;;;;;;;14.30;100.00;98548.94;5045215;28;20048;-70
2021/08/30 03:31:27;;;;;;;22.35;9.27;;;;;;;14.29;100.00;98549.81;5044008;28;20097;-70
2021/08/30 03:33:55;;;;;;;19.13;9.40;;;;;;;14.29;100.00;98561.28;5044512;28;20040;-70
2021/08/30 03:36:21;;;;;;;20.95;9.32;;;;;;;14.28;100.00;98551.63;5045090;28;20045;-70
2021/08/30 03:38:47;;;;;;;19.58;8.70;;;;;;;14.30;100.00;98549.78;5044802;28;20316;-70
2021/08/30 03:41:14;;;;;;;18.60;8.25;;;;;;;14.32;100.00;98555.00;5041278;28;20024;-70
2021/08/30 03:43:42;;;;;;;20.55;8.77;;;;;;;14.32;100.00;98560.31;5044884;28;20032;-70
2021/08/30 03:46:08;;;;;;;19.45;7.88;;;;;;;14.32;100.00;98560.31;5044936;28;20051;-70
2021/08/30 03:48:35;;;;;;;18.50;8.65;;;;;;;14.31;100.00;98563.88;5044755;28;20071;-70
2021/08/30 03:51:01;;;;;;;18.35;8.30;;;;;;;14.29;100.00;98561.28;5044454;28;20021;-70
2021/08/30 03:53:29;;;;;;;16.42;8.25;;;;;;;14.31;100.00;98558.59;5044702;28;20340;-70
2021/08/30 03:55:56;;;;;;;20.58;9.50;;;;;;;14.26;100.00;98556.09;5033676;28;20024;-70
2021/08/30 03:58:23;;;;;;;17.60;9.48;;;;;;;14.29;100.00;98560.41;5044612;28;20025;-70
2021/08/30 04:00:49;;;;;;;19.33;9.23;;;;;;;14.33;100.00;98554.13;5044671;28;20021;-70
2021/08/30 04:03:16;;;;;;;17.40;8.30;;;;;;;14.36;100.00;98559.28;5044251;28;20029;-70
2021/08/30 04:05:42;;;;;;;22.42;8.10;;;;;;;14.37;100.00;98555.72;5043133;28;20021;-70
2021/08/30 04:08:09;;;;;;;15.95;7.75;;;;;;;14.37;100.00;98558.38;5044438;28;20152;-70
2021/08/30 04:10:36;;;;;;;25.05;8.63;;;;;;;14.35;100.00;98552.25;5044138;28;20097;-70
2021/08/30 04:13:02;;;;;;;20.95;9.90;;;;;;;14.30;100.00;98554.22;5044364;28;20339;-70
2021/08/30 04:15:30;;;;;;;21.15;7.88;;;;;;;14.30;100.00;98551.56;5044118;28;20224;-70
2021/08/30 04:17:55;;;;;;;17.23;8.80;;;;;;;14.35;100.00;98554.91;5044173;28;20030;-70
2021/08/30 04:20:20;;;;;;;20.23;8.90;;;;;;;14.36;100.00;98551.31;5044633;28;20045;-70
2021/08/30 04:22:46;;;;;;;22.80;8.40;;;;;;;14.33;100.00;98547.03;5027008;28;20093;-70
2021/08/30 04:25:11;;;;;;;18.15;8.40;;;;;;;14.30;100.00;98551.56;5026801;28;20021;-70
2021/08/30 04:27:37;;;;;;;20.15;8.73;;;;;;;14.28;100.00;98558.69;5044496;28;20068;-70
2021/08/30 04:30:03;;;;;;;22.85;8.45;;;;;;;14.27;100.00;98554.34;5044391;28;20033;-70
2021/08/30 04:32:33;;;;;;;18.88;8.32;;;;;;;14.23;100.00;98560.63;5044203;28;20031;-70
2021/08/30 04:34:59;;;;;;;23.75;9.27;;;;;;;14.23;100.00;98560.63;5044316;28;20029;-70
2021/08/30 04:37:24;;;;;;;20.17;8.00;;;;;;;14.23;100.00;98565.94;5044310;28;20320;-70
2021/08/30 04:39:50;;;;;;;16.33;8.43;;;;;;;14.27;100.00;98567.56;5044299;28;20032;-70
2021/08/30 04:42:16;;;;;;;17.88;8.73;;;;;;;14.29;100.00;98565.72;5044267;28;20075;-70
2021/08/30 04:44:41;;;;;;;19.75;8.52;;;;;;;14.33;100.00;98567.34;5026611;28;20025;-70
2021/08/30 04:47:07;;;;;;;20.85;8.23;;;;;;;14.35;100.00;98565.50;5026570;28;20064;-70
2021/08/30 04:49:32;;;;;;;16.45;8.18;;;;;;;14.39;100.00;98572.41;5044122;28;20071;-70
2021/08/30 04:51:57;;;;;;;17.25;8.13;;;;;;;14.41;100.00;98575.88;5044162;28;20194;-70
2021/08/30 04:54:23;;;;;;;17.33;7.88;;;;;;;14.35;100.00;98573.44;5044049;28;20080;-70
2021/08/30 04:56:48;;;;;;;15.05;8.30;;;;;;;14.36;100.00;98578.69;5044042;28;20021;-70
2021/08/30 04:59:14;;;;;;;20.38;8.50;;;;;;;14.34;100.00;98575.22;5044216;28;20435;-70
2021/08/30 05:01:39;;;;;;;20.50;8.90;;;;;;;14.40;100.00;98580.28;5026409;28;20061;-70
2021/08/30 05:04:05;;;;;;;18.55;8.52;;;;;;;14.40;100.00;98567.06;5043946;28;20321;-70
2021/08/30 05:06:30;;;;;;;20.75;9.30;;;;;;;14.42;100.00;98569.66;5043956;28;20025;-70
2021/08/30 05:08:56;;;;;;;21.77;9.60;;;;;;;14.46;100.00;98573.94;5044043;28;20021;-70
2021/08/30 05:11:22;;;;;;;20.85;8.63;;;;;;;14.47;100.00;98580.97;5043757;28;20052;-70
2021/08/30 05:13:47;;;;;;;16.25;7.55;;;;;;;14.50;100.00;98575.56;5043999;28;20025;-70
2021/08/30 05:16:13;;;;;;;20.27;9.48;;;;;;;14.50;100.00;98586.16;5043863;28;20033;-70
2021/08/30 05:18:40;;;;;;;24.20;10.13;;;;;;;14.51;100.00;98582.56;5026302;28;20021;-70
2021/08/30 05:21:06;;;;;;;20.67;9.07;;;;;;;14.55;100.00;98578.88;5043885;28;20089;-70
2021/08/30 05:23:32;;;;;;;19.15;9.18;;;;;;;14.58;100.00;98589.38;5043937;28;20049;-70
2021/08/30 05:25:58;;;;;;;21.83;9.02;;;;;;;14.63;100.00;98587.44;5026198;28;20029;-70
2021/08/30 05:28:23;;;;;;;20.35;9.30;;;;;;;14.62;100.00;98591.00;5043802;28;20087;-70
2021/08/30 05:30:48;;;;;;;23.23;10.43;;;;;;;14.66;100.00;98587.31;5026090;28;20222;-70
2021/08/30 05:33:14;;;;;;;21.35;10.40;;;;;;;14.68;100.00;98581.03;5043743;28;20071;-70
2021/08/30 05:35:39;;;;;;;24.13;10.93;;;;;;;14.72;100.00;98584.47;5043663;28;20044;-70
2021/08/30 05:38:05;;;;;;;22.67;11.05;;;;;;;14.71;100.00;98586.22;5043717;28;20033;-70
2021/08/30 05:40:30;;;;;;;23.27;10.85;;;;;;;14.77;100.00;98585.13;5043852;28;20025;-70
2021/08/30 05:42:55;;;;;;;22.50;10.63;;;;;;;14.79;100.00;98588.59;5044620;28;20220;-70
2021/08/30 05:45:21;;;;;;;20.10;9.63;;;;;;;14.74;100.00;98591.41;5047506;28;20021;-70
2021/08/30 05:47:47;;;;;;;25.40;11.50;;;;;;;14.74;100.00;98590.53;5029778;28;20026;-70
2021/08/30 05:50:13;;;;;;;27.27;11.93;;;;;;;14.72;100.00;98592.41;5047489;28;20032;-70
2021/08/30 05:52:38;;;;;;;28.63;11.85;;;;;;;14.78;100.00;98592.19;5047545;28;20025;-70
2021/08/30 05:55:05;;;;;;;19.85;9.75;;;;;;;14.82;100.00;98596.44;5047153;28;20052;-70
2021/08/30 05:57:30;;;;;;;21.08;9.77;;;;;;;14.89;100.00;98590.88;5047185;28;20044;-70
2021/08/30 05:59:55;;;;;;;26.33;10.50;;;;;;;14.93;100.00;98599.53;5047257;28;20324;-71
2021/08/30 06:02:21;;;;;;;23.15;9.95;;;;;;;14.97;100.00;98588.78;5047105;28;20029;-71
2021/08/30 06:04:47;;;;;;;19.15;9.82;;;;;;;15.03;100.00;98590.34;5047208;28;20044;-70
2021/08/30 06:07:12;;;;;;;21.05;9.98;;;;;;;15.09;100.00;98598.03;5047004;28;20025;-70
2021/08/30 06:09:38;;;;;;;23.48;10.57;;;;;;;15.13;100.00;98599.69;5046873;28;20048;-70
2021/08/30 06:12:04;;;;;;;22.65;11.15;;;;;;;15.11;100.00;98601.53;5046776;28;20084;-70
2021/08/30 06:14:29;;;;;;;23.83;11.05;;;;;;;15.15;100.00;98608.44;5046826;28;20025;-70
2021/08/30 06:16:54;;;;;;;18.13;9.68;;;;;;;15.19;100.00;98599.47;5046919;28;20088;-70
2021/08/30 06:19:20;;;;;;;25.67;11.38;;;;;;;15.18;100.00;98591.56;5029159;28;20052;-70
2021/08/30 06:21:45;;;;;;;24.02;10.98;;;;;;;15.17;100.00;98598.63;5046804;28;20051;-70
2021/08/30 06:24:11;;;;;;;19.95;9.55;;;;;;;15.24;100.00;98600.13;5046711;28;20022;-70
2021/08/30 06:26:37;;;;;;;24.90;10.45;;;;;;;15.21;100.00;98597.59;5046820;28;20029;-70
2021/08/30 06:29:04;;;;;;;22.25;10.63;;;;;;;15.22;100.00;98599.31;5046619;28;20032;-70
2021/08/30 06:31:29;;;;;;;26.00;10.73;;;;;;;15.21;100.00;98602.91;5046571;28;20026;-70
2021/08/30 06:33:56;;;;;;;24.05;12.27;;;;;;;15.17;100.00;98596.00;5046512;28;20028;-69
2021/08/30 06:36:21;;;;;;;26.20;11.43;;;;;;;15.15;100.00;98603.13;5028631;28;20132;-69
2021/08/30 06:38:47;;;;;;;28.25;11.55;;;;;;;15.12;100.00;98603.22;5046442;28;20025;-69
2021/08/30 06:41:12;;;;;;;30.50;12.10;;;;;;;15.08;100.00;98597.19;5046270;28;20021;-70
2021/08/30 06:43:38;;;;;;;23.05;11.38;;;;;;;15.11;100.00;98602.41;5046352;28;20067;-70
2021/08/30 06:46:03;;;;;;;22.65;11.93;;;;;;;15.14;100.00;98612.00;5046276;28;20085;-70
2021/08/30 06:48:28;;;;;;;25.15;11.88;;;;;;;15.13;100.00;98605.00;5046279;28;20032;-70
2021/08/30 06:50:54;;;;;;;23.13;11.88;;;;;;;15.12;100.00;98608.53;5046340;28;20025;-70
2021/08/30 06:53:19;;;;;;;21.98;11.63;;;;;;;15.17;100.00;98609.25;5028489;28;20026;-71
2021/08/30 06:55:45;;;;;;;20.90;11.75;;;;;;;15.24;100.00;98608.09;5027085;28;20036;-70
2021/08/30 06:58:10;;;;;;;22.92;11.45;;;;;;;15.32;100.00;98608.66;5046062;28;20051;-70
2021/08/30 07:00:35;;;;;;;34.67;11.80;;;;;;;15.42;100.00;98607.41;5028478;28;20029;-70
2021/08/30 07:03:01;;;;;;;28.58;11.93;;;;;;;15.46;100.00;98608.13;5045902;28;20049;-70
2021/08/30 07:05:26;;;;;;;25.55;12.45;;;;;;;15.61;100.00;98603.13;5046031;28;20032;-70
2021/08/30 07:07:52;;;;;;;32.17;13.05;;;;;;;15.70;100.00;98602.75;5045957;28;20043;-70
2021/08/30 07:10:17;;;;;;;27.55;12.75;;;;;;;15.87;100.00;98599.38;5045924;28;20097;-70
2021/08/30 07:12:43;;;;;;;23.42;12.63;;;;;;;16.23;98.75;98609.34;5045919;28;20028;-70
2021/08/30 07:15:09;;;;;;;23.88;11.10;;;;;;;16.97;96.56;98593.69;5045689;28;20032;-70
2021/08/30 07:17:34;;;;;;;20.08;11.20;;;;;;;17.32;94.27;98604.47;5045665;28;20324;-70
2021/08/30 07:20:00;;;;;;;26.80;11.68;;;;;;;17.15;94.26;98595.47;5045546;28;20075;-70
2021/08/30 07:22:25;;;;;;;22.92;11.68;;;;;;;17.06;94.41;98603.88;5045577;28;20277;-70
2021/08/30 07:24:51;;;;;;;20.25;12.10;;;;;;;16.87;94.06;98602.97;5045599;28;20024;-70
2021/08/30 07:27:16;;;;;;;23.58;12.68;;;;;;;16.97;94.25;98604.31;5045519;28;20064;-70
2021/08/30 07:29:42;;;;;;;24.65;14.05;;;;;;;17.06;94.13;98605.69;5045327;28;20084;-70
2021/08/30 07:32:08;;;;;;;25.75;13.85;;;;;;;17.18;94.51;98605.09;5045344;28;20025;-70
2021/08/30 07:34:33;;;;;;;24.60;13.52;;;;;;;17.38;93.41;98609.50;5045248;28;20021;-70
2021/08/30 07:36:59;;;;;;;28.58;13.93;;;;;;;17.32;92.34;98609.81;5045241;28;20057;-70
2021/08/30 07:39:25;;;;;;;28.30;13.95;;;;;;;17.35;91.62;98610.53;5045139;28;20033;-70
2021/08/30 07:41:51;;;;;;;23.70;12.65;;;;;;;17.32;90.87;98605.34;5045184;28;20049;-70
2021/08/30 07:44:17;;;;;;;24.23;14.48;;;;;;;17.36;91.36;98612.25;5045070;28;20085;-70
2021/08/30 07:46:42;;;;;;;25.25;13.60;;;;;;;17.36;91.92;98616.69;5044990;28;20025;-70
2021/08/30 07:49:10;;;;;;;31.67;14.90;;;;;;;17.35;92.28;98615.84;5027299;28;20212;-70
2021/08/30 07:51:35;;;;;;;34.92;15.30;;;;;;;17.24;93.00;98619.00;5044879;28;20028;-70
2021/08/30 07:54:01;;;;;;;31.85;15.52;;;;;;;17.32;91.26;98626.63;5045024;28;20080;-70
2021/08/30 07:56:27;;;;;;;26.15;14.07;;;;;;;17.38;89.80;98630.81;5044837;28;20375;-70
2021/08/30 07:58:53;;;;;;;29.25;15.85;;;;;;;17.41;91.60;98631.53;5044773;28;20025;-70
2021/08/30 08:01:18;;;;;;;26.75;15.40;;;;;;;17.38;90.35;98628.13;5044697;28;20217;-70
2021/08/30 08:03:44;;;;;;;23.88;14.90;;;;;;;17.38;89.73;98633.47;5044702;28;20025;-70
2021/08/30 08:06:09;;;;;;;26.48;14.95;;;;;;;17.33;90.83;98627.50;5026670;28;20032;-70
2021/08/30 08:08:34;;;;;;;22.30;14.20;;;;;;;17.28;90.65;98631.22;5044645;28;20032;-70
2021/08/30 08:11:00;;;;;;;32.50;16.25;;;;;;;17.29;90.15;98629.44;5044375;28;20049;-70
2021/08/30 08:13:26;;;;;;;27.45;15.38;;;;;;;17.35;90.00;98636.25;5044556;28;20028;-70
2021/08/30 08:15:52;;;;;;;28.60;16.58;;;;;;;17.41;89.83;98635.97;5044379;28;20216;-70
2021/08/30 08:18:17;;;;;;;27.23;14.55;;;;;;;17.43;89.54;98644.81;5044431;28;20045;-70
2021/08/30 08:20:43;;;;;;;30.08;15.55;;;;;;;17.45;90.51;98642.91;5044419;28;20108;-70
2021/08/30 08:23:08;;;;;;;25.20;14.80;;;;;;;17.42;90.85;98643.03;5044393;28;20021;-70
2021/08/30 08:25:35;;;;;;;31.85;14.38;;;;;;;17.43;89.32;98650.13;5044390;28;20332;-70
2021/08/30 08:28:04;;;;;;;37.30;17.52;;;;;;;17.28;89.78;98647.19;5044400;28;20025;-70
2021/08/30 08:30:30;;;;;;;25.05;14.77;;;;;;;17.23;90.42;98654.53;5044275;28;20022;-70
2021/08/30 08:32:56;;;;;;;25.27;15.73;;;;;;;17.27;90.37;98650.78;5044644;28;20268;-70
2021/08/30 08:35:21;;;;;;;29.35;15.98;;;;;;;17.43;88.83;98660.78;5026568;28;20022;-70
2021/08/30 08:37:47;;;;;;;31.23;16.42;;;;;;;17.59;89.22;98656.47;5044184;28;20328;-70
2021/08/30 08:40:12;;;;;;;28.77;16.88;;;;;;;17.64;88.82;98665.06;5026656;28;20036;-70
2021/08/30 08:42:42;;;;;;;32.22;16.10;;;;;;;17.62;88.47;98662.47;5044107;28;20025;-70
2021/08/30 08:45:12;;;;;;;26.33;14.73;;;;;;;17.71;88.61;98659.38;5044076;28;20021;-70
2021/08/30 08:47:39;;;;;;;28.83;15.93;;;;;;;17.67;88.44;98665.81;5026381;28;20045;-70
2021/08/30 08:50:10;;;;;;;26.85;16.10;;;;;;;17.54;88.13;98666.44;5044055;28;20025;-70
2021/08/30 08:52:36;;;;;;;31.77;16.95;;;;;;;17.67;86.98;98667.59;5044011;28;20029;-70
2021/08/30 08:55:03;;;;;;;30.40;15.73;;;;;;;17.70;88.29;98670.09;5026188;28;20052;-70
2021/08/30 08:57:30;;;;;;;29.73;16.33;;;;;;;17.77;87.42;98672.41;5043992;28;20347;-70
2021/08/30 08:59:58;;;;;;;31.63;16.27;;;;;;;17.69;88.27;98671.06;5043961;28;20320;-70
2021/08/30 09:02:28;;;;;;;29.38;16.50;;;;;;;17.81;86.51;98675.81;5043915;28;20021;-70
2021/08/30 09:04:55;;;;;;;26.98;16.55;;;;;;;17.76;85.56;98680.47;5043980;28;20028;-70
2021/08/30 09:07:30;;;;;;;27.70;15.43;;;;;;;17.92;86.60;98678.81;5043882;28;20025;-70
2021/08/30 09:09:59;;;;;;;28.05;15.13;;;;;;;17.96;86.20;98681.25;5043695;28;20193;-70
2021/08/30 09:12:25;;;;;;;27.75;15.80;;;;;;;17.98;86.61;98678.50;5043822;28;20021;-70
2021/08/30 09:14:51;;;;;;;27.77;14.77;;;;;;;18.13;86.13;98670.63;5043727;28;20032;-70
2021/08/30 09:17:16;;;;;;;26.08;15.02;;;;;;;18.10;86.05;98676.09;5043700;28;20044;-70
2021/08/30 09:19:42;;;;;;;32.38;16.85;;;;;;;18.09;86.56;98684.16;5029900;28;20096;-70
2021/08/30 09:22:09;;;;;;;31.98;17.10;;;;;;;17.88;85.41;98675.41;5047702;28;20208;-70
2021/08/30 09:24:36;;;;;;;29.20;15.27;;;;;;;17.92;85.87;98682.34;5030033;28;20096;-70
2021/08/30 09:27:04;;;;;;;28.33;16.27;;;;;;;17.83;86.24;98681.91;5047632;28;20025;-70
2021/08/30 09:29:35;;;;;;;27.10;16.00;;;;;;;17.89;86.27;98681.63;5047523;28;20025;-70
2021/08/30 09:32:02;;;;;;;31.25;17.65;;;;;;;17.90;86.37;98678.00;5047544;28;20032;-70
2021/08/30 09:34:45;;;;;;;29.35;17.13;;;;;;;17.83;86.13;98677.44;5029739;28;20053;-70
2021/08/30 09:37:23;;;;;;;30.15;16.15;;;;;;;18.06;86.30;98679.00;5047373;28;20083;-70
2021/08/30 09:39:59;;;;;;;30.77;17.35;;;;;;;18.15;86.38;98681.22;5047348;28;20047;-70
2021/08/30 09:42:26;;;;;;;34.13;16.67;;;;;;;18.13;86.21;98681.28;5047353;28;20068;-70
2021/08/30 09:44:54;;;;;;;28.80;16.48;;;;;;;17.98;85.27;98675.84;5047329;28;20280;-70
2021/08/30 09:47:21;;;;;;;29.23;16.45;;;;;;;18.04;85.38;98680.88;5029656;28;20335;-70
2021/08/30 09:49:51;;;;;;;25.08;15.65;;;;;;;18.00;85.98;98679.31;5047190;28;20024;-70
2021/08/30 09:52:21;;;;;;;31.60;17.42;;;;;;;17.95;85.11;98676.00;5047392;28;20026;-70
2021/08/30 09:54:47;;;;;;;38.33;17.48;;;;;;;18.18;85.63;98673.06;5046950;28;20028;-70
2021/08/30 09:57:14;;;;;;;30.77;16.15;;;;;;;18.30;84.27;98677.81;5047034;28;20268;-70
2021/08/30 09:59:42;;;;;;;33.90;18.00;;;;;;;18.36;85.33;98682.84;5046962;28;20095;-70
2021/08/30 10:02:11;;;;;;;34.72;18.13;;;;;;;18.29;85.42;98682.25;5029214;28;20017;-70
2021/08/30 10:04:39;;;;;;;31.17;16.40;;;;;;;18.15;82.88;98683.88;5046917;28;20312;-70
2021/08/30 10:07:05;;;;;;;27.30;16.23;;;;;;;18.08;83.20;98677.13;5029304;28;20189;-70
2021/08/30 10:09:31;;;;;;;35.53;16.80;;;;;;;18.07;83.11;98675.41;5046806;28;20084;-70
2021/08/30 10:11:57;;;;;;;45.45;18.75;;;;;;;18.13;83.09;98680.44;5046678;28;20047;-70
2021/08/30 10:14:25;;;;;;;28.38;17.63;;;;;;;18.20;82.29;98687.19;5046619;28;20056;-70
2021/08/30 10:16:51;;;;;;;32.53;17.50;;;;;;;18.19;81.96;98674.81;5046680;28;20032;-70
2021/08/30 10:19:31;;;;;;;29.38;15.85;;;;;;;18.34;83.46;98674.91;5046620;28;20021;-70
2021/08/30 10:21:59;;;;;;;25.48;15.73;;;;;;;18.55;82.17;98673.88;5028918;28;20075;-70
2021/08/30 10:24:25;;;;;;;25.30;15.80;;;;;;;18.56;83.08;98685.38;5046559;28;20067;-70
2021/08/30 10:27:00;;;;;;;27.40;14.77;;;;;;;18.67;82.76;98683.06;5046545;28;20088;-70
2021/08/30 10:29:34;;;;;;;24.85;15.30;;;;;;;18.72;80.73;98681.00;5046105;28;20017;-70
2021/08/30 10:32:00;;;;;;;24.40;14.70;;;;;;;18.83;81.94;98689.34;5046406;28;20025;-70
2021/08/30 10:34:35;;;;;;;26.80;15.43;;;;;;;18.72;81.49;98697.00;5028533;28;20021;-70
2021/08/30 10:37:02;;;;;;;26.08;15.68;;;;;;;18.68;81.71;98685.66;5046286;28;20048;-70
2021/08/30 10:39:42;;;;;;;31.30;15.63;;;;;;;18.64;82.38;98688.56;5046245;28;20025;-70
2021/08/30 10:42:12;;;;;;;26.48;14.55;;;;;;;18.79;81.04;98687.75;5046205;28;20021;-70
2021/08/30 10:45:03;;;;;;;26.08;14.80;;;;;;;18.79;81.19;98687.75;5046127;28;20017;-70
2021/08/30 10:47:37;;;;;;;33.38;15.57;;;;;;;18.97;80.47;98687.69;5046121;28;20025;-70
2021/08/30 10:50:04;;;;;;;29.45;16.23;;;;;;;18.94;80.51;98693.16;5028408;28;20017;-70
2021/08/30 10:52:38;;;;;;;28.02;16.23;;;;;;;18.96;78.64;98690.44;5046035;28;20132;-70
2021/08/30 10:55:17;;;;;;;26.50;14.35;;;;;;;19.18;78.41;98691.03;5045899;28;20316;-70
2021/08/30 10:57:49;;;;;;;24.33;15.48;;;;;;;19.06;78.27;98691.66;5028230;28;20025;-70
2021/08/30 11:00:15;;;;;;;26.90;15.85;;;;;;;19.18;77.74;98685.69;5045870;28;20081;-70
2021/08/30 11:02:48;;;;;;;25.45;15.05;;;;;;;19.30;78.09;98690.38;5028026;28;20025;-70
2021/08/30 11:05:18;;;;;;;31.05;15.15;;;;;;;19.28;77.00;98681.63;5045757;28;20063;-70
2021/08/30 11:07:50;;;;;;;25.50;15.38;;;;;;;19.38;78.52;98677.50;5028065;28;20052;-70
2021/08/30 11:10:15;;;;;;;25.00;14.35;;;;;;;19.71;78.25;98686.34;5045534;28;20049;-70
2021/08/30 11:12:41;;;;;;;22.38;13.02;;;;;;;19.87;76.29;98681.88;5045585;28;20435;-70
2021/08/30 11:15:07;;;;;;;25.98;13.35;;;;;;;19.74;75.71;98690.66;5045495;28;20325;-70
2021/08/30 11:17:33;;;;;;;25.77;13.30;;;;;;;19.74;73.24;98680.00;5045480;28;20021;-70
2021/08/30 11:20:00;;;;;;;23.90;13.43;;;;;;;19.82;75.29;98681.28;5045497;28;20021;-70